Time;durP1;ratioP1;P1;durP2;ratioP2;P2;SDS_P1;SDS_P2;PMS_P1;PMS_P2;Temp;Humidity;BMP_temperature;BMP_pressure;BME280_temperature;BME280_humidity;BME280_pressure;Samples;Min_cycle;Max_cycle;Signal;HPM_P1;HPM_P2
2022/09/17 00:00:24;;;;;;;12.32;1.67;;;;;;;9.73;99.76;101004.63;4991437;28;20041;-75
2022/09/17 00:02:54;;;;;;;10.40;2.40;;;;;;;9.67;100.00;101003.44;4973909;28;20046;-76
2022/09/17 00:05:21;;;;;;;10.57;2.00;;;;;;;9.72;100.00;101008.19;4989012;28;20034;-75
2022/09/17 00:07:47;;;;;;;5.13;2.03;;;;;;;9.85;99.88;101005.22;4990674;28;20030;-75
2022/09/17 00:10:12;;;;;;;9.40;2.10;;;;;;;9.81;99.87;101007.28;4987878;28;20396;-75
2022/09/17 00:12:38;;;;;;;11.38;1.85;;;;;;;9.71;99.99;101007.34;5006562;28;20034;-75
2022/09/17 00:15:04;;;;;;;12.32;2.75;;;;;;;9.77;100.00;101005.94;4990643;28;20046;-75
2022/09/17 00:17:29;;;;;;;12.70;2.42;;;;;;;9.77;99.99;101000.78;4972717;28;21996;-75
2022/09/17 00:19:55;;;;;;;9.52;1.90;;;;;;;9.79;99.93;101004.03;4988892;28;20030;-76
2022/09/17 00:22:20;;;;;;;10.93;2.10;;;;;;;9.70;100.00;101012.66;4989240;28;20477;-75
2022/09/17 00:24:45;;;;;;;12.05;2.47;;;;;;;9.72;100.00;101008.19;4983644;28;20096;-75
2022/09/17 00:27:11;;;;;;;9.18;2.20;;;;;;;9.67;100.00;101011.19;4989886;28;20050;-75
2022/09/17 00:29:36;;;;;;;12.52;2.15;;;;;;;9.71;100.00;101011.72;4962663;28;20038;-75
2022/09/17 00:32:02;;;;;;;9.20;2.42;;;;;;;9.66;100.00;101007.00;4988324;28;20049;-75
2022/09/17 00:34:27;;;;;;;18.77;2.70;;;;;;;9.69;100.00;101013.66;4987191;28;20047;-75
2022/09/17 00:36:53;;;;;;;8.40;2.25;;;;;;;9.78;100.00;101007.59;4989166;28;20034;-75
2022/09/17 00:39:18;;;;;;;7.65;2.08;;;;;;;9.81;100.00;101012.47;4988777;28;20042;-75
2022/09/17 00:41:44;;;;;;;9.10;2.20;;;;;;;9.66;100.00;101019.94;4999628;28;20518;-75
2022/09/17 00:44:47;;;;;;;5.20;2.00;;;;;;;9.59;100.00;101011.13;4986069;28;20034;-76
2022/09/17 00:47:23;;;;;;;11.27;2.40;;;;;;;9.60;100.00;101020.50;5004366;28;20030;-76
2022/09/17 00:49:54;;;;;;;12.98;3.55;;;;;;;9.63;100.00;101027.19;4983493;28;20426;-75
2022/09/17 00:52:25;;;;;;;11.43;2.33;;;;;;;9.69;100.00;101024.81;4996174;28;20507;-74
2022/09/17 00:55:25;;;;;;;9.35;2.10;;;;;;;9.60;100.00;101025.66;4987820;28;20039;-75
2022/09/17 00:57:53;;;;;;;12.80;2.53;;;;;;;9.59;100.00;101033.56;4981553;28;20080;-76
2022/09/17 01:00:20;;;;;;;13.32;2.53;;;;;;;9.70;100.00;101025.63;4987653;28;20034;-75
2022/09/17 01:02:46;;;;;;;17.00;4.07;;;;;;;9.68;100.00;101033.56;4988095;28;20037;-75
2022/09/17 01:05:12;;;;;;;10.15;2.00;;;;;;;9.68;100.00;101027.53;4987066;28;20038;-75
2022/09/17 01:07:50;;;;;;;10.60;2.75;;;;;;;9.61;100.00;101034.28;4989899;28;20161;-77
2022/09/17 01:10:43;;;;;;;11.00;2.22;;;;;;;9.65;100.00;101028.66;4971393;28;20069;-75
2022/09/17 01:13:18;;;;;;;12.35;2.25;;;;;;;9.69;100.00;101039.53;4987071;28;20026;-76
2022/09/17 01:15:59;;;;;;;8.98;2.78;;;;;;;9.65;100.00;101030.44;4988191;28;20041;-76
2022/09/17 01:18:35;;;;;;;14.27;2.35;;;;;;;9.62;100.00;101036.69;4989676;28;20034;-76
2022/09/17 01:21:10;;;;;;;12.23;2.17;;;;;;;9.64;100.00;101033.97;4988827;28;20081;-74
2022/09/17 01:24:07;;;;;;;12.82;2.92;;;;;;;9.60;100.00;101043.78;4995809;28;20380;-74
2022/09/17 01:27:00;;;;;;;9.90;1.65;;;;;;;9.52;100.00;101039.34;4987983;28;20112;-75
2022/09/17 01:29:44;;;;;;;10.38;2.10;;;;;;;9.49;100.00;101044.81;4989184;28;20034;-76
2022/09/17 01:32:23;;;;;;;13.45;2.17;;;;;;;9.47;100.00;101044.13;4985946;28;20050;-74
2022/09/17 01:34:51;;;;;;;13.80;2.22;;;;;;;9.48;100.00;101042.38;4982091;28;20038;-75
2022/09/17 01:37:31;;;;;;;16.45;2.25;;;;;;;9.36;100.00;101044.28;4980048;28;20038;-75
2022/09/17 01:40:10;;;;;;;18.52;2.70;;;;;;;9.40;100.00;101048.25;4991173;28;20035;-74
2022/09/17 01:43:02;;;;;;;15.25;2.05;;;;;;;9.48;100.00;101040.59;4987407;28;20101;-75
2022/09/17 01:46:00;;;;;;;12.77;2.33;;;;;;;9.55;100.00;101053.78;4990998;28;20030;-75
2022/09/17 01:48:30;;;;;;;12.23;2.00;;;;;;;9.52;100.00;101060.03;4970186;28;20674;-77
2022/09/17 01:51:09;;;;;;;8.95;2.70;;;;;;;9.56;100.00;101060.56;4989442;28;20459;-76
2022/09/17 01:53:46;;;;;;;10.88;3.05;;;;;;;9.58;100.00;101061.25;4984422;28;20037;-76
2022/09/17 01:56:16;;;;;;;9.65;2.72;;;;;;;9.57;100.00;101061.38;4985303;28;20038;-75
2022/09/17 01:58:49;;;;;;;11.80;2.17;;;;;;;9.59;100.00;101055.13;4984630;28;20089;-75
2022/09/17 02:01:19;;;;;;;14.55;2.58;;;;;;;9.50;100.00;101056.78;4969157;28;20038;-76
2022/09/17 02:03:58;;;;;;;12.10;2.33;;;;;;;9.48;100.00;101058.69;4986632;28;20439;-75
2022/09/17 02:06:29;;;;;;;12.93;2.00;;;;;;;9.62;100.00;101061.78;4988250;28;20404;-75
2022/09/17 02:09:06;;;;;;;10.73;1.83;;;;;;;9.58;100.00;101065.63;4986712;28;20049;-75
2022/09/17 02:11:35;;;;;;;17.77;3.67;;;;;;;9.61;100.00;101060.16;4969093;28;20026;-75
2022/09/17 02:14:07;;;;;;;14.63;2.42;;;;;;;9.55;100.00;101070.13;4987222;28;20034;-75
2022/09/17 02:16:36;;;;;;;10.98;2.30;;;;;;;9.54;100.00;101068.47;4987228;28;20088;-75
2022/09/17 02:19:05;;;;;;;17.83;2.13;;;;;;;9.54;100.00;101063.31;4993138;28;20038;-75
2022/09/17 02:21:46;;;;;;;9.48;2.17;;;;;;;9.58;100.00;101068.22;4994748;28;20069;-75
2022/09/17 02:24:23;;;;;;;9.10;2.00;;;;;;;9.52;100.00;101054.88;4979555;28;20039;-75
2022/09/17 02:27:10;;;;;;;6.88;1.90;;;;;;;9.57;100.00;101063.97;4986073;28;20041;-76
2022/09/17 02:29:38;;;;;;;10.35;2.15;;;;;;;9.57;100.00;101062.22;4982173;28;20030;-75
2022/09/17 02:32:05;;;;;;;19.98;2.58;;;;;;;9.62;100.00;101059.19;4985334;28;20042;-74
2022/09/17 02:34:30;;;;;;;13.27;2.05;;;;;;;9.53;100.00;101063.44;4986603;28;20136;-76
2022/09/17 02:37:00;;;;;;;14.98;1.77;;;;;;;9.51;100.00;101060.19;4986841;28;20542;-75
2022/09/17 02:39:26;;;;;;;17.08;2.65;;;;;;;9.45;100.00;101076.28;4986806;28;20057;-75
2022/09/17 02:42:14;;;;;;;20.38;3.50;;;;;;;9.60;100.00;101066.28;4983213;28;20043;-73
2022/09/17 02:45:05;;;;;;;15.93;2.28;;;;;;;9.53;100.00;101066.88;4982437;28;20071;-75
2022/09/17 02:47:33;;;;;;;8.52;1.70;;;;;;;9.56;100.00;101073.53;4992813;28;20034;-75
2022/09/17 02:50:17;;;;;;;11.13;1.58;;;;;;;9.57;100.00;101075.16;4987443;28;20046;-77
2022/09/17 02:53:10;;;;;;;8.45;1.88;;;;;;;9.58;100.00;101071.59;4968316;28;20484;-75
2022/09/17 02:55:38;;;;;;;13.95;1.85;;;;;;;9.64;100.00;101077.97;4978792;28;20065;-76
2022/09/17 02:58:49;;;;;;;15.38;2.17;;;;;;;9.54;100.00;101067.66;4984512;28;20558;-75
2022/09/17 03:01:42;;;;;;;11.57;1.65;;;;;;;9.65;100.00;101072.66;4958551;28;20074;-75
2022/09/17 03:04:11;;;;;;;16.92;1.88;;;;;;;9.57;100.00;101080.34;4970419;28;20035;-77
2022/09/17 03:06:37;;;;;;;16.17;1.80;;;;;;;9.65;100.00;101077.03;4968074;28;20022;-74
2022/09/17 03:09:03;;;;;;;9.43;1.52;;;;;;;9.71;100.00;101082.44;4986673;28;20533;-75
2022/09/17 03:11:28;;;;;;;12.02;1.77;;;;;;;9.59;100.00;101077.59;4986479;28;20112;-75
2022/09/17 03:13:54;;;;;;;12.65;1.90;;;;;;;9.71;100.00;101079.03;4986957;28;20038;-75
2022/09/17 03:16:19;;;;;;;12.15;2.10;;;;;;;9.55;100.00;101079.66;4992431;28;20549;-76
2022/09/17 03:18:44;;;;;;;10.35;1.70;;;;;;;9.59;100.00;101075.00;4986344;28;20799;-75
2022/09/17 03:21:11;;;;;;;8.40;1.48;;;;;;;9.62;100.00;101070.34;4968392;28;20413;-74
2022/09/17 03:23:37;;;;;;;11.48;1.50;;;;;;;9.57;100.00;101074.31;4965779;28;20019;-76
2022/09/17 03:26:02;;;;;;;10.93;2.03;;;;;;;9.56;100.00;101070.94;4984159;28;20681;-75
2022/09/17 03:28:28;;;;;;;9.40;1.90;;;;;;;9.46;100.00;101081.31;4986510;28;20041;-76
2022/09/17 03:30:53;;;;;;;13.57;1.52;;;;;;;9.48;100.00;101084.59;4988122;28;20057;-76
2022/09/17 03:33:19;;;;;;;12.18;1.45;;;;;;;9.54;100.00;101081.41;4989335;28;20042;-75
2022/09/17 03:35:45;;;;;;;11.00;1.70;;;;;;;9.47;100.00;101080.34;4987508;28;20081;-75
2022/09/17 03:38:11;;;;;;;8.63;1.83;;;;;;;9.43;100.00;101075.63;4990560;28;20436;-77
2022/09/17 03:40:37;;;;;;;9.50;2.05;;;;;;;9.37;100.00;101074.41;5004881;28;20034;-76
2022/09/17 03:43:03;;;;;;;13.05;1.75;;;;;;;9.40;100.00;101078.47;4990928;28;20117;-75
2022/09/17 03:45:28;;;;;;;19.63;3.15;;;;;;;9.36;100.00;101072.75;4989487;28;20057;-75
2022/09/17 03:47:55;;;;;;;14.10;1.65;;;;;;;9.32;100.00;101076.59;4988520;28;20436;-76
2022/09/17 03:50:21;;;;;;;10.77;1.20;;;;;;;9.32;100.00;101085.19;5004112;28;20046;-76
2022/09/17 03:52:46;;;;;;;13.65;2.22;;;;;;;9.24;100.00;101082.47;4986022;28;20046;-76
2022/09/17 03:55:12;;;;;;;16.00;1.90;;;;;;;9.20;100.00;101088.91;4987760;28;20038;-75
2022/09/17 03:57:37;;;;;;;18.15;1.42;;;;;;;9.27;100.00;101081.41;4991229;28;20117;-75
2022/09/17 04:00:04;;;;;;;9.05;1.45;;;;;;;9.22;100.00;101089.56;4989374;28;20498;-76
2022/09/17 04:02:37;;;;;;;8.85;1.67;;;;;;;9.20;100.00;101090.66;4989904;28;20074;-75
2022/09/17 04:05:03;;;;;;;8.90;1.13;;;;;;;9.27;100.00;101092.56;4990986;28;20081;-75
2022/09/17 04:07:28;;;;;;;6.75;1.20;;;;;;;9.20;100.00;101096.66;4990093;28;20442;-77
2022/09/17 04:09:53;;;;;;;13.35;1.67;;;;;;;9.24;100.00;101092.00;4973258;28;20045;-75
2022/09/17 04:12:19;;;;;;;10.98;1.48;;;;;;;9.23;100.00;101093.81;4987457;28;20021;-75
2022/09/17 04:14:44;;;;;;;12.65;1.60;;;;;;;9.21;100.00;101093.13;4988463;28;20037;-75
2022/09/17 04:17:11;;;;;;;13.95;1.73;;;;;;;9.19;100.00;101102.78;4987293;28;20132;-77
2022/09/17 04:19:36;;;;;;;10.07;1.80;;;;;;;9.14;100.00;101092.84;4988204;28;20122;-76
2022/09/17 04:22:02;;;;;;;9.43;2.70;;;;;;;9.17;100.00;101086.56;4981179;28;20117;-76
2022/09/17 04:24:27;;;;;;;17.15;2.47;;;;;;;9.17;100.00;101091.75;4989087;28;20026;-76
2022/09/17 04:26:53;;;;;;;15.85;1.48;;;;;;;9.19;100.00;101091.63;4986552;28;20031;-76
2022/09/17 04:29:18;;;;;;;5.95;1.67;;;;;;;9.21;100.00;101098.28;4987878;28;20038;-76
2022/09/17 04:31:43;;;;;;;11.32;1.30;;;;;;;9.18;100.00;101093.38;4988165;28;20026;-75
2022/09/17 04:34:09;;;;;;;9.80;1.30;;;;;;;9.15;100.00;101091.91;4987384;28;20505;-75
2022/09/17 04:36:34;;;;;;;13.45;1.42;;;;;;;9.12;100.00;101099.13;4986090;28;20088;-76
2022/09/17 04:39:00;;;;;;;9.57;1.10;;;;;;;9.12;100.00;101101.72;4987664;28;20093;-75
2022/09/17 04:41:25;;;;;;;14.20;1.90;;;;;;;9.11;100.00;101100.88;4986993;28;20030;-77
2022/09/17 04:43:51;;;;;;;13.68;1.55;;;;;;;9.14;100.00;101104.97;4987899;28;20049;-76
2022/09/17 04:46:16;;;;;;;14.52;2.10;;;;;;;9.07;100.00;101103.91;4984768;28;20053;-75
2022/09/17 04:48:42;;;;;;;13.82;3.08;;;;;;;9.04;100.00;101099.00;4971460;28;20038;-75
2022/09/17 04:51:07;;;;;;;8.18;1.15;;;;;;;9.01;100.00;101101.88;4998553;28;20420;-76
2022/09/17 04:53:33;;;;;;;15.02;1.75;;;;;;;9.05;100.00;101101.44;4989713;28;20041;-76
2022/09/17 04:55:58;;;;;;;20.45;2.10;;;;;;;9.03;100.00;101105.13;4985031;28;20125;-76
2022/09/17 04:58:24;;;;;;;9.02;1.65;;;;;;;9.06;100.00;101110.00;4988100;28;20562;-75
2022/09/17 05:00:49;;;;;;;16.80;1.55;;;;;;;9.07;100.00;101101.31;4988633;28;20483;-76
2022/09/17 05:03:15;;;;;;;16.38;1.60;;;;;;;9.12;100.00;101112.06;4989104;28;20022;-75
2022/09/17 05:05:40;;;;;;;7.57;1.20;;;;;;;9.13;100.00;101106.72;4990042;28;20045;-75
2022/09/17 05:08:07;;;;;;;9.82;1.67;;;;;;;9.04;100.00;101104.16;4987332;28;20042;-76
2022/09/17 05:10:32;;;;;;;14.52;2.00;;;;;;;9.14;100.00;101100.63;4988355;28;20041;-76
2022/09/17 05:12:58;;;;;;;7.13;1.10;;;;;;;9.05;100.00;101104.03;4984757;28;20034;-77
2022/09/17 05:15:25;;;;;;;11.13;2.42;;;;;;;9.08;100.00;101108.94;4988381;28;20030;-76
2022/09/17 05:17:50;;;;;;;10.30;1.40;;;;;;;9.18;100.00;101105.53;4970011;28;20041;-77
2022/09/17 05:20:16;;;;;;;9.93;2.60;;;;;;;9.14;100.00;101110.97;4974081;28;20030;-76
2022/09/17 05:22:46;;;;;;;9.35;1.75;;;;;;;9.22;100.00;101120.63;4987994;28;20038;-75
2022/09/17 05:25:14;;;;;;;11.45;1.60;;;;;;;9.31;100.00;101114.59;4988045;28;20058;-76
2022/09/17 05:27:40;;;;;;;11.48;2.00;;;;;;;9.28;100.00;101114.06;4988570;28;20034;-75
2022/09/17 05:30:07;;;;;;;12.77;1.65;;;;;;;9.30;100.00;101125.09;4995077;28;21185;-75
2022/09/17 05:32:33;;;;;;;14.73;4.47;;;;;;;9.27;100.00;101127.97;4966150;28;20042;-75
2022/09/17 05:34:58;;;;;;;18.42;5.55;;;;;;;9.41;100.00;101130.09;4970858;28;20033;-75
2022/09/17 05:37:24;;;;;;;12.75;1.88;;;;;;;9.48;100.00;101128.59;4988260;28;20480;-77
2022/09/17 05:39:49;;;;;;;8.65;1.27;;;;;;;9.46;100.00;101133.09;4971261;28;20030;-75
2022/09/17 05:42:15;;;;;;;16.50;2.20;;;;;;;9.43;100.00;101127.38;4982748;28;20507;-76
2022/09/17 05:44:40;;;;;;;12.82;1.40;;;;;;;9.48;100.00;101135.56;4987526;28;20388;-75
2022/09/17 05:47:06;;;;;;;11.25;1.95;;;;;;;9.51;100.00;101133.50;4987430;28;20474;-76
2022/09/17 05:49:31;;;;;;;11.90;1.33;;;;;;;9.50;100.00;101141.41;4985800;28;20586;-75
2022/09/17 05:51:56;;;;;;;16.30;1.42;;;;;;;9.52;100.00;101148.06;4970218;28;20419;-75
2022/09/17 05:54:22;;;;;;;11.63;1.10;;;;;;;9.64;100.00;101150.47;4983745;28;20454;-76
2022/09/17 05:56:51;;;;;;;14.73;2.60;;;;;;;9.67;100.00;101139.84;4987105;28;20411;-75
2022/09/17 05:59:17;;;;;;;22.95;6.10;;;;;;;9.60;100.00;101142.19;4990543;28;20049;-76
2022/09/17 06:01:43;;;;;;;13.27;2.03;;;;;;;9.62;100.00;101135.09;4998866;28;20042;-75
2022/09/17 06:04:08;;;;;;;6.18;1.40;;;;;;;9.60;99.54;101144.75;4987092;28;20034;-74
2022/09/17 06:06:35;;;;;;;10.57;1.50;;;;;;;9.67;99.53;101147.63;4987950;28;20542;-74
2022/09/17 06:09:01;;;;;;;12.88;2.72;;;;;;;9.64;99.38;101150.47;4984420;28;20046;-75
2022/09/17 06:11:27;;;;;;;6.57;1.50;;;;;;;9.57;99.84;101159.75;4970511;28;20041;-76
2022/09/17 06:13:53;;;;;;;8.18;1.88;;;;;;;9.58;99.53;101158.81;4987006;28;20096;-74
2022/09/17 06:16:23;;;;;;;19.30;5.05;;;;;;;9.60;99.12;101155.13;4986672;28;20479;-75
2022/09/17 06:18:54;;;;;;;14.93;4.88;;;;;;;9.60;98.90;101159.50;4987433;28;20061;-74
2022/09/17 06:21:23;;;;;;;12.60;3.63;;;;;;;9.64;99.12;101163.44;4987518;28;20045;-75
2022/09/17 06:23:49;;;;;;;10.70;3.67;;;;;;;9.64;99.14;101161.66;4985797;28;20042;-74
2022/09/17 06:26:14;;;;;;;8.27;1.60;;;;;;;9.61;99.45;101172.31;4985283;28;20050;-77
2022/09/17 06:28:40;;;;;;;18.13;2.88;;;;;;;9.62;99.47;101168.75;4985817;28;20038;-74
2022/09/17 06:31:07;;;;;;;14.85;4.38;;;;;;;9.60;98.97;101168.06;4967061;28;20043;-75
2022/09/17 06:33:33;;;;;;;11.32;2.42;;;;;;;9.68;98.95;101169.94;4984461;28;20038;-75
2022/09/17 06:36:02;;;;;;;12.98;2.72;;;;;;;9.78;98.81;101173.34;4984566;28;20589;-76
2022/09/17 06:38:28;;;;;;;6.47;1.80;;;;;;;9.90;97.80;101173.97;4969728;28;20022;-75
2022/09/17 06:40:54;;;;;;;15.93;2.58;;;;;;;10.07;97.50;101185.34;4982283;28;20034;-75
2022/09/17 06:43:20;;;;;;;14.55;4.53;;;;;;;10.34;96.30;101179.41;4985495;28;20393;-74
2022/09/17 06:46:00;;;;;;;16.40;7.35;;;;;;;10.42;95.19;101178.69;4983050;28;20042;-75
2022/09/17 06:48:27;;;;;;;12.80;3.38;;;;;;;10.54;95.00;101179.28;4984691;28;20030;-75
2022/09/17 06:50:54;;;;;;;10.25;2.30;;;;;;;10.59;95.00;101177.88;4979143;28;20134;-74
2022/09/17 06:53:23;;;;;;;16.25;1.95;;;;;;;10.78;94.64;101183.91;4981068;28;20065;-75
2022/09/17 06:55:49;;;;;;;9.23;1.33;;;;;;;11.86;90.68;101176.72;4968162;28;20427;-75
2022/09/17 06:58:15;;;;;;;13.50;1.42;;;;;;;12.93;83.91;101174.44;4988109;28;20109;-77
2022/09/17 07:00:40;;;;;;;11.20;1.15;;;;;;;13.44;80.43;101172.47;4987369;28;20800;-75
2022/09/17 07:03:06;;;;;;;12.35;3.00;;;;;;;13.80;78.81;101177.25;4987058;28;20034;-75
2022/09/17 07:05:33;;;;;;;22.38;8.40;;;;;;;14.30;75.42;101175.28;4979920;28;20034;-75
2022/09/17 07:08:01;;;;;;;10.43;1.20;;;;;;;14.02;73.30;101179.13;4985594;28;20042;-75
2022/09/17 07:10:28;;;;;;;10.13;2.20;;;;;;;14.06;74.38;101184.81;4980015;28;20660;-77
2022/09/17 07:12:53;;;;;;;10.50;1.30;;;;;;;14.65;72.95;101188.78;4986205;28;20046;-76
2022/09/17 07:15:19;;;;;;;11.13;1.60;;;;;;;14.94;71.07;101183.69;4985663;28;20728;-75
2022/09/17 07:17:45;;;;;;;13.18;1.70;;;;;;;14.98;70.17;101178.94;4970379;28;20031;-74
2022/09/17 07:20:11;;;;;;;14.02;2.33;;;;;;;15.02;70.26;101182.00;4982274;28;20133;-75
2022/09/17 07:22:36;;;;;;;4.88;1.35;;;;;;;15.10;69.38;101174.09;4988284;28;20109;-76
2022/09/17 07:25:03;;;;;;;5.65;1.25;;;;;;;15.82;67.63;101164.91;4985339;28;20559;-75
2022/09/17 07:27:29;;;;;;;12.85;1.73;;;;;;;16.23;65.38;101170.41;4972875;28;20492;-76
2022/09/17 07:29:55;;;;;;;7.18;1.05;;;;;;;16.10;64.72;101173.69;4987446;28;20045;-76
2022/09/17 07:32:21;;;;;;;14.40;2.28;;;;;;;15.21;67.02;101173.66;4986505;28;20124;-76
2022/09/17 07:34:48;;;;;;;8.70;2.45;;;;;;;14.19;69.97;101173.84;4985570;28;20074;-75
2022/09/17 07:37:14;;;;;;;15.48;2.28;;;;;;;14.99;68.97;101168.31;4983837;28;20038;-76
2022/09/17 07:39:40;;;;;;;11.38;1.70;;;;;;;15.85;65.95;101170.56;4983026;28;20118;-75
2022/09/17 07:42:06;;;;;;;4.82;1.48;;;;;;;16.16;63.76;101169.53;4976585;28;20055;-75
2022/09/17 07:44:32;;;;;;;12.63;3.38;;;;;;;15.73;65.07;101175.47;4985087;28;20097;-76
2022/09/17 07:46:57;;;;;;;8.35;1.70;;;;;;;15.09;65.60;101169.88;4985873;28;20037;-76
2022/09/17 07:49:22;;;;;;;9.65;2.05;;;;;;;14.84;67.08;101180.47;4986934;28;20038;-75
2022/09/17 07:51:48;;;;;;;11.00;1.80;;;;;;;14.65;67.72;101170.53;4985247;28;20046;-76
2022/09/17 07:54:13;;;;;;;6.57;0.77;;;;;;;14.56;67.65;101169.72;4986405;28;20035;-78
2022/09/17 07:56:39;;;;;;;10.27;1.33;;;;;;;14.32;69.58;101171.50;4985830;28;20035;-75
2022/09/17 07:59:04;;;;;;;12.30;2.20;;;;;;;14.14;70.74;101176.16;4986086;28;20038;-76
2022/09/17 08:01:33;;;;;;;10.25;1.38;;;;;;;14.19;69.84;101177.28;4985160;28;20038;-76
2022/09/17 08:03:59;;;;;;;5.82;1.10;;;;;;;14.79;68.83;101178.41;4991822;28;20471;-76
2022/09/17 08:06:26;;;;;;;13.68;1.58;;;;;;;14.77;68.57;101175.16;4987076;28;20022;-76
2022/09/17 08:08:56;;;;;;;10.55;1.50;;;;;;;14.70;68.72;101171.63;4987524;28;20042;-76
2022/09/17 08:11:25;;;;;;;11.45;2.40;;;;;;;14.62;69.33;101186.50;4969633;28;20039;-76
2022/09/17 08:13:52;;;;;;;9.77;1.30;;;;;;;14.47;70.52;101176.00;4986462;28;20077;-75
2022/09/17 08:16:19;;;;;;;6.40;1.75;;;;;;;14.66;68.81;101178.19;4988403;28;20471;-75
2022/09/17 08:18:45;;;;;;;10.93;1.90;;;;;;;15.76;64.95;101179.50;4989986;28;20515;-76
2022/09/17 08:21:20;;;;;;;8.32;1.50;;;;;;;16.64;61.71;101169.84;5005592;28;20040;-75
2022/09/17 08:23:46;;;;;;;4.05;0.90;;;;;;;16.99;58.77;101162.13;4973701;28;20052;-75
2022/09/17 08:26:21;;;;;;;12.30;2.05;;;;;;;16.98;59.35;101176.22;4990232;28;20034;-75
2022/09/17 08:28:57;;;;;;;7.55;1.33;;;;;;;17.16;56.77;101167.91;4987912;28;20057;-76
2022/09/17 08:31:25;;;;;;;8.27;1.20;;;;;;;17.52;56.03;101170.34;4989196;28;22895;-77
2022/09/17 08:33:51;;;;;;;8.20;1.90;;;;;;;17.49;56.37;101177.78;4987180;28;20034;-76
2022/09/17 08:36:19;;;;;;;5.70;1.20;;;;;;;16.63;58.77;101173.47;4985859;28;20045;-77
2022/09/17 08:38:45;;;;;;;9.63;1.15;;;;;;;16.62;58.71;101173.66;4988495;28;20034;-76
2022/09/17 08:41:16;;;;;;;5.82;1.60;;;;;;;16.26;60.11;101177.91;4994194;28;20092;-75
2022/09/17 08:43:51;;;;;;;11.05;1.15;;;;;;;15.96;61.23;101187.63;4984621;28;20027;-76
2022/09/17 08:46:16;;;;;;;9.00;1.67;;;;;;;16.44;60.00;101187.16;4985160;28;20043;-76
2022/09/17 08:48:51;;;;;;;9.43;1.23;;;;;;;17.05;57.72;101179.72;4976463;28;20037;-75
2022/09/17 08:51:40;;;;;;;6.72;1.38;;;;;;;17.69;55.95;101178.72;4987246;28;20057;-76
2022/09/17 08:54:14;;;;;;;8.50;1.17;;;;;;;17.95;55.35;101179.06;4983610;28;20062;-76
2022/09/17 08:56:43;;;;;;;5.47;0.90;;;;;;;18.14;54.25;101178.34;4986912;28;20034;-75
2022/09/17 08:59:25;;;;;;;8.57;1.20;;;;;;;18.27;53.86;101177.56;4987476;28;20443;-76
2022/09/17 09:02:35;;;;;;;5.23;0.97;;;;;;;18.40;53.58;101177.63;4984312;28;20069;-76
2022/09/17 09:05:20;;;;;;;4.78;1.10;;;;;;;16.90;55.77;101194.69;4982469;28;20042;-76
2022/09/17 09:07:51;;;;;;;9.18;1.60;;;;;;;16.17;59.17;101192.09;4986885;28;20037;-77
2022/09/17 09:10:24;;;;;;;5.40;0.90;;;;;;;16.07;59.46;101183.75;4989221;28;20129;-76
2022/09/17 09:12:55;;;;;;;5.50;1.17;;;;;;;16.16;59.27;101190.47;4981864;28;20040;-76
2022/09/17 09:15:44;;;;;;;3.08;0.98;;;;;;;16.42;58.65;101186.53;4988758;28;20554;-76
2022/09/17 09:18:21;;;;;;;4.78;1.33;;;;;;;16.88;56.92;101180.97;4985359;28;20042;-75
2022/09/17 09:20:54;;;;;;;3.45;0.90;;;;;;;17.36;56.45;101182.94;4985432;28;20064;-74
2022/09/17 09:23:25;;;;;;;;;;;;;;;16.90;55.45;101185.03;4988348;28;20100;-76
2022/09/17 09:25:56;;;;;;;4.00;1.45;;;;;;;17.08;57.34;101181.13;4980088;28;19918;-77
2022/09/17 09:28:39;;;;;;;5.15;1.30;;;;;;;17.07;56.88;101182.94;4987901;28;20038;-74
2022/09/17 09:31:27;;;;;;;3.28;0.60;;;;;;;17.15;55.45;101184.63;4989115;28;20074;-75
2022/09/17 09:33:54;;;;;;;8.57;1.15;;;;;;;17.05;56.12;101178.91;4986682;28;20042;-77
2022/09/17 09:36:20;;;;;;;5.93;1.85;;;;;;;16.48;57.42;101188.41;4987264;28;20042;-76
2022/09/17 09:38:58;;;;;;;4.05;0.88;;;;;;;16.11;57.66;101187.59;4982898;28;20038;-75
2022/09/17 09:41:44;;;;;;;6.43;1.02;;;;;;;16.48;57.90;101186.63;4983242;28;20116;-75
2022/09/17 09:44:12;;;;;;;3.50;0.60;;;;;;;17.02;55.77;101184.50;4985339;28;20042;-77
2022/09/17 09:47:06;;;;;;;9.27;1.75;;;;;;;16.62;57.50;101179.69;4992838;28;20109;-77
2022/09/17 09:49:55;;;;;;;;;;;;;;;16.29;58.14;101184.56;4988173;28;20034;-74
2022/09/17 09:52:31;;;;;;;7.70;0.90;;;;;;;16.20;58.32;101186.50;4984254;28;19918;-76
2022/09/17 09:55:35;;;;;;;9.85;1.60;;;;;;;16.52;57.38;101189.69;4987957;28;20117;-75
2022/09/17 09:58:24;;;;;;;15.15;3.78;;;;;;;16.73;56.94;101178.41;4984973;28;20463;-77
2022/09/17 10:00:50;;;;;;;33.40;8.13;;;;;;;16.42;56.59;101183.91;4984672;28;20841;-76
2022/09/17 10:03:21;;;;;;;9.25;3.22;;;;;;;16.18;56.75;101179.81;4970426;28;20855;-76
2022/09/17 10:06:09;;;;;;;5.53;1.88;;;;;;;16.00;58.07;101186.25;4962367;28;20030;-77
2022/09/17 10:08:40;;;;;;;12.27;4.47;;;;;;;16.24;58.07;101176.50;4986994;28;20041;-77
2022/09/17 10:11:11;;;;;;;9.57;2.63;;;;;;;16.11;58.12;101177.13;4986947;28;20105;-76
2022/09/17 10:13:37;;;;;;;7.35;1.48;;;;;;;16.22;57.29;101171.44;4985470;28;20034;-75
2022/09/17 10:16:31;;;;;;;12.40;2.70;;;;;;;16.63;56.88;101170.03;4984535;28;20372;-76
2022/09/17 10:19:02;;;;;;;3.80;1.17;;;;;;;16.72;55.68;101161.84;4986758;28;20057;-75
2022/09/17 10:21:36;;;;;;;11.00;2.45;;;;;;;16.75;55.63;101171.16;4987335;28;20769;-75
2022/09/17 10:24:03;;;;;;;19.85;6.07;;;;;;;16.86;56.23;101167.28;4988316;28;20096;-76
2022/09/17 10:26:32;;;;;;;17.25;5.88;;;;;;;16.48;55.52;101164.84;4993021;28;20041;-76
2022/09/17 10:29:01;;;;;;;3.90;1.00;;;;;;;16.25;56.63;101163.19;4984319;28;20030;-75
2022/09/17 10:31:26;;;;;;;9.60;1.50;;;;;;;16.62;57.00;101161.38;4985447;28;20023;-76
2022/09/17 10:34:00;;;;;;;10.32;2.40;;;;;;;16.65;55.64;101147.91;4987474;28;20045;-75
2022/09/17 10:36:44;;;;;;;10.07;3.70;;;;;;;16.69;54.97;101161.44;4986265;28;20117;-76
2022/09/17 10:39:37;;;;;;;2.70;0.90;;;;;;;16.62;54.94;101157.94;4987897;28;20035;-74
2022/09/17 10:42:14;;;;;;;3.80;1.33;;;;;;;16.87;55.71;101150.53;4981261;28;20599;-76
2022/09/17 10:44:57;;;;;;;2.22;0.50;;;;;;;16.70;55.89;101150.75;4989870;28;20034;-76
2022/09/17 10:47:25;;;;;;;;;;;;;;;16.47;55.79;101152.78;4981858;28;20031;-77
2022/09/17 10:49:55;;;;;;;5.40;0.95;;;;;;;16.45;55.92;101150.34;4978351;28;19921;-76
2022/09/17 10:52:33;;;;;;;7.20;1.38;;;;;;;16.55;55.44;101148.22;4980885;28;20062;-76
2022/09/17 10:55:09;;;;;;;4.63;0.77;;;;;;;16.46;54.64;101146.75;4987029;28;20038;-78
2022/09/17 10:58:08;;;;;;;5.07;0.60;;;;;;;16.53;54.58;101144.97;4987015;28;20035;-76
2022/09/17 11:00:52;;;;;;;4.13;1.48;;;;;;;16.33;55.01;101157.03;4988391;28;20100;-76
2022/09/17 11:03:36;;;;;;;4.43;0.70;;;;;;;16.31;55.55;101161.66;4970070;28;20659;-75
2022/09/17 11:06:22;;;;;;;5.30;0.80;;;;;;;16.04;57.08;101163.97;4985382;28;20680;-76
2022/09/17 11:08:51;;;;;;;13.15;5.28;;;;;;;15.62;63.12;101195.97;4976544;28;20058;-76
2022/09/17 11:11:35;;;;;;;8.70;1.50;;;;;;;14.76;67.61;101198.81;4982496;28;20042;-75
2022/09/17 11:14:47;;;;;;;4.40;1.17;;;;;;;13.47;66.93;101220.81;4984003;28;20125;-80
2022/09/17 11:17:31;;;;;;;4.05;0.20;;;;;;;13.35;70.35;101202.09;4949685;28;20074;-81
2022/09/17 11:20:21;;;;;;;5.53;0.65;;;;;;;13.22;76.58;101206.00;4970867;28;20073;-81
2022/09/17 11:23:08;;;;;;;4.32;1.05;;;;;;;13.31;80.57;101203.41;5000729;28;20034;-81
2022/09/17 11:25:57;;;;;;;11.15;2.55;;;;;;;13.85;84.60;101184.59;4980500;28;20062;-81
2022/09/17 11:28:34;;;;;;;2.78;0.95;;;;;;;14.13;83.98;101177.97;4981558;28;20039;-78
2022/09/17 11:31:08;;;;;;;3.97;0.70;;;;;;;14.43;83.18;101178.13;4990693;28;20042;-77
2022/09/17 11:33:49;;;;;;;6.55;0.90;;;;;;;14.47;84.29;101181.22;4989565;28;20085;-77
2022/09/17 11:36:53;;;;;;;5.28;0.60;;;;;;;14.50;83.99;101173.84;4967832;28;20046;-77
2022/09/17 11:39:57;;;;;;;6.72;1.13;;;;;;;14.37;83.21;101176.19;4981964;28;20050;-76
2022/09/17 11:43:03;;;;;;;5.25;0.90;;;;;;;14.46;83.57;101166.53;4980632;28;20140;-76